createdAt,value
2018-05-16T00:01:49.411Z,8.40
2018-05-16T00:03:52.842Z,8.27
2018-05-16T00:05:56.315Z,8.23
2018-05-16T00:07:59.741Z,11.33
2018-05-16T00:10:04.478Z,9.23
2018-05-16T00:12:07.950Z,14.60
2018-05-16T00:14:11.403Z,11.03
2018-05-16T00:16:15.158Z,9.97
2018-05-16T00:18:18.633Z,11.37
2018-05-16T00:20:22.062Z,8.00
2018-05-16T00:22:25.513Z,11.03
2018-05-16T00:24:28.953Z,10.73
2018-05-16T00:26:32.394Z,10.67
2018-05-16T00:28:35.885Z,9.47
2018-05-16T00:30:39.309Z,10.13
2018-05-16T00:32:42.743Z,9.13
2018-05-16T00:34:46.215Z,8.50
2018-05-16T00:36:50.406Z,10.17
2018-05-16T00:38:53.867Z,8.50
2018-05-16T00:40:57.342Z,7.80
2018-05-16T00:43:00.815Z,8.93
2018-05-16T00:45:04.993Z,12.37
2018-05-16T00:47:08.648Z,10.73
2018-05-16T00:49:12.147Z,9.33
2018-05-16T00:51:27.446Z,9.80
2018-05-16T00:53:31.031Z,10.07
2018-05-16T00:55:34.581Z,9.63
2018-05-16T00:57:38.137Z,7.70
2018-05-16T00:59:42.485Z,8.73
2018-05-16T01:01:46.029Z,9.30
2018-05-16T01:03:49.580Z,10.20
2018-05-16T01:05:53.124Z,8.67
2018-05-16T01:07:56.641Z,9.93
2018-05-16T01:10:00.303Z,8.20
2018-05-16T01:12:03.857Z,10.23
2018-05-16T01:14:07.353Z,12.90
2018-05-16T01:16:10.888Z,10.27
2018-05-16T01:18:15.209Z,8.83
2018-05-16T01:20:18.789Z,8.67
2018-05-16T01:22:22.696Z,6.87
2018-05-16T01:24:26.214Z,7.77
2018-05-16T01:26:29.733Z,9.00
2018-05-16T01:28:33.287Z,12.03
2018-05-16T01:30:36.887Z,9.20
2018-05-16T01:32:40.416Z,10.40
2018-05-16T01:34:43.939Z,8.20
2018-05-16T01:36:47.517Z,9.63
2018-05-16T01:38:51.811Z,10.93
2018-05-16T01:40:55.352Z,11.27
2018-05-16T01:42:59.005Z,8.90
2018-05-16T01:45:02.508Z,8.37
2018-05-16T01:47:11.772Z,8.23
2018-05-16T01:49:20.280Z,8.47
2018-05-16T01:51:23.783Z,9.77
2018-05-16T01:53:27.332Z,7.53
2018-05-16T01:55:30.831Z,8.77
2018-05-16T01:57:34.398Z,10.13
2018-05-16T01:59:37.899Z,9.07
2018-05-16T02:01:41.424Z,8.73
2018-05-16T02:03:45.798Z,10.23
2018-05-16T02:05:49.289Z,8.30
2018-05-16T02:07:52.870Z,9.60
2018-05-16T02:09:56.423Z,9.03
2018-05-16T02:12:00.812Z,10.27
2018-05-16T02:14:04.357Z,10.37
2018-05-16T02:16:07.935Z,8.50
2018-05-16T02:18:11.522Z,11.33
2018-05-16T02:20:15.050Z,9.00
2018-05-16T02:22:18.579Z,9.07
2018-05-16T02:24:22.137Z,8.10
2018-05-16T02:26:25.683Z,8.13
2018-05-16T02:28:29.441Z,9.07
2018-05-16T02:30:32.968Z,12.03
2018-05-16T02:32:36.597Z,9.90
2018-05-16T02:34:40.239Z,9.07
2018-05-16T02:36:43.769Z,10.00
2018-05-16T02:38:48.921Z,9.20
2018-05-16T02:40:52.523Z,11.07
2018-05-16T02:42:56.074Z,9.07
2018-05-16T02:44:59.710Z,9.73
2018-05-16T02:47:03.234Z,9.63
2018-05-16T02:49:06.848Z,10.80
2018-05-16T02:51:10.714Z,8.53
2018-05-16T02:53:15.021Z,10.80
2018-05-16T02:55:19.571Z,8.13
2018-05-16T02:57:23.425Z,11.23
2018-05-16T02:59:26.964Z,10.30
2018-05-16T03:01:30.464Z,9.20
2018-05-16T03:03:36.315Z,9.00
2018-05-16T03:05:40.897Z,9.17
2018-05-16T03:07:44.431Z,10.87
2018-05-16T03:09:47.969Z,12.37
2018-05-16T03:11:52.226Z,9.43
2018-05-16T03:13:56.556Z,8.83
2018-05-16T03:16:00.103Z,11.77
2018-05-16T03:18:03.606Z,10.17
2018-05-16T03:20:07.880Z,13.43
2018-05-16T03:22:11.558Z,11.33
2018-05-16T03:24:15.053Z,10.17
2018-05-16T03:26:18.582Z,11.87
2018-05-16T03:28:22.124Z,11.87
2018-05-16T03:30:25.624Z,10.47
2018-05-16T03:32:29.175Z,11.07
2018-05-16T03:34:32.695Z,8.67
2018-05-16T03:36:36.212Z,8.97
2018-05-16T03:38:40.530Z,8.33
2018-05-16T03:40:44.270Z,8.33
2018-05-16T03:42:47.804Z,9.23
2018-05-16T03:44:51.303Z,10.53
2018-05-16T03:46:55.615Z,8.00
2018-05-16T03:48:59.878Z,10.20
2018-05-16T03:51:03.557Z,9.33
2018-05-16T03:53:07.061Z,9.07
2018-05-16T03:55:10.531Z,8.73
2018-05-16T03:57:26.483Z,15.17
2018-05-16T03:59:43.799Z,12.57
2018-05-16T04:01:59.287Z,11.67
2018-05-16T04:04:18.680Z,9.00
2018-05-16T04:06:22.980Z,9.40
2018-05-16T04:08:27.541Z,10.47
2018-05-16T04:10:31.054Z,15.77
2018-05-16T04:12:34.627Z,9.80
2018-05-16T04:14:38.686Z,8.13
2018-05-16T04:16:42.963Z,12.73
2018-05-16T04:18:46.476Z,9.07
2018-05-16T04:20:54.287Z,9.50
2018-05-16T04:22:59.794Z,8.10
2018-05-16T04:25:03.413Z,9.27
2018-05-16T04:27:06.910Z,13.67
2018-05-16T04:29:11.395Z,13.00
2018-05-16T04:31:14.968Z,13.23
2018-05-16T04:33:18.653Z,13.27
2018-05-16T04:35:24.531Z,12.53
2018-05-16T04:37:31.251Z,11.07
2018-05-16T04:39:36.521Z,7.93
2018-05-16T04:41:40.186Z,9.60
2018-05-16T04:43:43.658Z,10.80
2018-05-16T04:45:47.567Z,10.63
2018-05-16T04:47:52.316Z,10.17
2018-05-16T04:49:56.584Z,10.73
2018-05-16T04:52:00.120Z,9.40
2018-05-16T04:54:03.739Z,9.53
2018-05-16T04:56:07.987Z,8.77
2018-05-16T05:00:10.869Z,7.63
2018-05-16T05:02:15.156Z,9.40
2018-05-16T05:04:19.784Z,10.83
2018-05-16T05:06:29.253Z,9.00
2018-05-16T05:08:34.634Z,10.97
2018-05-16T05:10:39.194Z,8.47
2018-05-16T05:12:45.846Z,12.27
2018-05-16T05:14:49.352Z,9.20
2018-05-16T05:16:53.861Z,9.53
2018-05-16T05:18:58.056Z,8.90
2018-05-16T05:21:02.992Z,8.83
2018-05-16T05:23:08.366Z,9.97
2018-05-16T05:25:11.840Z,11.80
2018-05-16T05:27:18.594Z,11.57
2018-05-16T05:29:25.603Z,13.80
2018-05-16T05:31:29.084Z,15.47
2018-05-16T05:33:32.554Z,12.03
2018-05-16T05:35:37.605Z,15.00
2018-05-16T05:37:41.086Z,16.00
2018-05-16T05:39:45.291Z,12.87
2018-05-16T05:41:49.479Z,8.90
2018-05-16T05:43:52.952Z,12.77
2018-05-16T05:45:56.370Z,10.80
2018-05-16T05:47:59.805Z,11.03
2018-05-16T05:50:03.326Z,12.43
2018-05-16T05:52:06.749Z,10.60
2018-05-16T05:54:10.975Z,8.07
2018-05-16T05:56:15.707Z,8.40
2018-05-16T05:58:22.766Z,9.83
2018-05-16T06:00:28.081Z,14.23
2018-05-16T06:02:31.545Z,16.60
2018-05-16T06:04:35.008Z,13.47
2018-05-16T06:06:40.419Z,13.40
2018-05-16T06:08:43.854Z,15.97
2018-05-16T06:10:47.300Z,15.43
2018-05-16T06:12:50.790Z,20.23
2018-05-16T06:14:55.074Z,16.50
2018-05-16T06:17:03.318Z,13.93
2018-05-16T06:19:07.478Z,15.20
2018-05-16T06:21:10.923Z,10.60
2018-05-16T06:23:17.917Z,14.17
2018-05-16T06:25:22.147Z,14.63
2018-05-16T06:27:25.681Z,16.07
2018-05-16T06:29:29.123Z,12.43
2018-05-16T06:31:33.914Z,18.00
2018-05-16T06:33:37.910Z,14.77
2018-05-16T06:35:41.361Z,14.77
2018-05-16T06:37:44.810Z,16.47
2018-05-16T06:39:48.289Z,16.10
2018-05-16T06:41:54.074Z,15.80
2018-05-16T06:43:57.545Z,15.13
2018-05-16T06:46:01.438Z,14.50
2018-05-16T06:48:06.555Z,15.77
2018-05-16T06:50:09.994Z,15.73
2018-05-16T06:52:16.013Z,18.77
2018-05-16T06:54:21.179Z,17.20
2018-05-16T06:56:25.127Z,16.87
2018-05-16T06:58:29.296Z,18.23
2018-05-16T07:00:32.721Z,17.10
2018-05-16T07:02:38.523Z,23.27
2018-05-16T07:04:41.954Z,17.67
2018-05-16T07:06:45.382Z,16.73
2018-05-16T07:08:48.838Z,16.40
2018-05-16T07:10:53.129Z,19.27
2018-05-16T07:12:57.398Z,14.97
2018-05-16T07:15:00.835Z,17.67
2018-05-16T07:17:04.266Z,8.80
2018-05-16T07:19:07.716Z,8.43
2018-05-16T07:21:11.152Z,12.83
2018-05-16T07:23:14.599Z,11.13
2018-05-16T07:25:18.118Z,8.90
2018-05-16T07:27:22.327Z,11.53
2018-05-16T07:29:27.051Z,11.50
2018-05-16T07:31:30.481Z,12.97
2018-05-16T07:33:33.920Z,9.13
2018-05-16T07:35:37.887Z,10.27
2018-05-16T07:37:42.093Z,11.27
2018-05-16T07:39:45.554Z,10.77
2018-05-16T07:41:49.014Z,16.13
2018-05-16T07:43:52.505Z,19.77
2018-05-16T07:45:55.962Z,18.67
2018-05-16T07:47:59.831Z,10.63
2018-05-16T07:50:03.281Z,12.03
2018-05-16T07:52:06.719Z,17.00
2018-05-16T07:54:10.893Z,14.97
2018-05-16T07:56:14.391Z,10.27
2018-05-16T07:58:18.217Z,13.07
2018-05-16T08:00:22.423Z,10.47
2018-05-16T08:02:31.866Z,12.10
2018-05-16T08:04:38.086Z,15.07
2018-05-16T08:06:45.047Z,13.60
2018-05-16T08:08:51.672Z,14.00
2018-05-16T08:10:56.237Z,17.87
2018-05-16T08:12:59.954Z,18.40
2018-05-16T08:15:05.928Z,15.00
2018-05-16T08:17:12.035Z,16.90
2018-05-16T08:19:19.473Z,18.10
2018-05-16T08:21:26.501Z,12.43
2018-05-16T08:23:33.798Z,12.57
2018-05-16T08:25:41.092Z,18.77
2018-05-16T08:27:48.409Z,16.17
2018-05-16T08:29:55.803Z,15.90
2018-05-16T08:32:02.491Z,17.07
2018-05-16T08:34:09.552Z,15.20
2018-05-16T08:36:16.221Z,16.50
2018-05-16T08:38:23.150Z,17.90
2018-05-16T08:40:30.168Z,14.33
2018-05-16T08:42:37.615Z,17.20
2018-05-16T08:44:45.368Z,15.07
2018-05-16T08:46:53.135Z,16.90
2018-05-16T08:49:00.952Z,12.00
2018-05-16T08:51:08.180Z,12.73
2018-05-16T08:53:15.612Z,18.50
2018-05-16T08:55:23.334Z,14.93
2018-05-16T08:57:31.311Z,12.33
2018-05-16T08:59:39.339Z,13.73
2018-05-16T09:01:47.257Z,15.00
2018-05-16T09:03:59.936Z,14.43
2018-05-16T09:06:13.503Z,12.70
2018-05-16T09:08:28.206Z,13.53
2018-05-16T09:10:43.032Z,13.53
2018-05-16T09:12:58.137Z,13.07
2018-05-16T09:15:09.796Z,12.27
2018-05-16T09:17:22.709Z,13.47
2018-05-16T09:19:41.627Z,16.70
2018-05-16T09:21:54.554Z,13.53
2018-05-16T09:24:09.184Z,15.73
2018-05-16T09:26:23.007Z,20.10
2018-05-16T09:28:35.390Z,15.93
2018-05-16T09:30:48.109Z,13.53
2018-05-16T09:33:01.812Z,16.37
2018-05-16T09:35:15.312Z,15.00
2018-05-16T09:37:33.405Z,16.10
2018-05-16T09:39:48.155Z,17.67
2018-05-16T09:42:00.001Z,14.37
2018-05-16T09:44:13.374Z,15.43
2018-05-16T09:46:27.731Z,15.43
2018-05-16T09:48:43.474Z,15.37
2018-05-16T09:50:59.507Z,13.53
2018-05-16T09:53:13.589Z,18.00
2018-05-16T09:55:31.180Z,12.80
2018-05-16T09:57:44.448Z,15.83
2018-05-16T10:00:02.520Z,10.30
2018-05-16T10:02:11.007Z,15.77
2018-05-16T10:04:24.872Z,15.13
2018-05-16T10:06:38.277Z,12.67
2018-05-16T10:08:50.188Z,16.37
2018-05-16T10:11:01.682Z,17.13
2018-05-16T10:13:14.723Z,14.73
2018-05-16T10:15:26.934Z,17.80
2018-05-16T10:17:43.932Z,14.83
2018-05-16T10:19:58.679Z,11.47
2018-05-16T10:22:04.605Z,11.83
2018-05-16T10:24:08.205Z,12.47
2018-05-16T10:26:11.688Z,15.90
2018-05-16T10:28:15.234Z,12.13
2018-05-16T10:30:18.732Z,15.27
2018-05-16T10:32:23.064Z,13.57
2018-05-16T10:34:26.665Z,15.53
2018-05-16T10:36:30.242Z,15.70
2018-05-16T10:38:34.210Z,14.83
2018-05-16T10:40:37.709Z,13.63
2018-05-16T10:42:41.182Z,15.20
2018-05-16T10:44:44.726Z,21.63
2018-05-16T10:46:48.622Z,15.63
2018-05-16T10:48:52.155Z,19.80
2018-05-16T10:50:56.423Z,21.30
2018-05-16T10:52:59.979Z,18.93
2018-05-16T10:55:03.542Z,16.77
2018-05-16T10:57:07.018Z,15.20
2018-05-16T10:59:10.591Z,20.70
2018-05-16T11:01:14.115Z,13.07
2018-05-16T11:03:17.805Z,13.37
2018-05-16T11:05:21.351Z,18.93
2018-05-16T11:07:25.638Z,20.20
2018-05-16T11:09:29.288Z,15.40
2018-05-16T11:11:32.823Z,14.30
2018-05-16T11:13:36.323Z,16.67
2018-05-16T11:15:39.891Z,12.73
2018-05-16T11:17:44.161Z,15.90
2018-05-16T11:19:48.446Z,16.53
2018-05-16T11:21:51.989Z,15.93
2018-05-16T11:23:55.629Z,18.73
2018-05-16T11:25:59.199Z,16.87
2018-05-16T11:28:02.763Z,14.87
2018-05-16T11:30:07.043Z,15.43
2018-05-16T11:32:10.590Z,13.63
2018-05-16T11:34:14.128Z,11.97
2018-05-16T11:36:17.651Z,16.97
2018-05-16T11:38:21.271Z,16.93
2018-05-16T11:40:24.819Z,14.00
2018-05-16T11:42:28.403Z,13.93
2018-05-16T11:44:32.722Z,12.50
2018-05-16T11:46:36.236Z,9.97
2018-05-16T11:48:39.809Z,13.50
2018-05-16T11:50:43.352Z,15.10
2018-05-16T11:52:47.654Z,13.97
2018-05-16T11:54:51.178Z,16.10
2018-05-16T11:56:54.731Z,11.83
2018-05-16T11:58:58.217Z,13.57
2018-05-16T12:01:01.838Z,10.93
2018-05-16T12:03:06.111Z,12.53
2018-05-16T12:05:10.511Z,14.17
2018-05-16T12:07:14.772Z,10.37
2018-05-16T12:09:19.039Z,15.03
2018-05-16T12:11:22.605Z,12.93
2018-05-16T12:13:26.138Z,12.47
2018-05-16T12:15:30.064Z,12.60
2018-05-16T12:17:33.586Z,15.50
2018-05-16T12:19:37.835Z,14.23
2018-05-16T12:21:41.484Z,14.70
2018-05-16T12:23:44.987Z,17.27
2018-05-16T12:25:49.312Z,13.07
2018-05-16T12:27:52.879Z,16.57
2018-05-16T12:29:56.469Z,16.40
2018-05-16T12:31:59.975Z,11.33
2018-05-16T12:34:04.315Z,9.90
2018-05-16T12:36:07.833Z,22.13
2018-05-16T12:38:12.135Z,18.67
2018-05-16T12:40:15.704Z,18.13
2018-05-16T12:42:20.024Z,12.10
2018-05-16T12:44:23.550Z,19.90
2018-05-16T12:46:27.107Z,17.83
2018-05-16T12:48:31.463Z,20.77
2018-05-16T12:50:35.025Z,20.83
2018-05-16T12:52:38.546Z,21.73
2018-05-16T12:54:42.140Z,17.07
2018-05-16T12:56:45.639Z,16.23
2018-05-16T12:58:49.125Z,21.47
2018-05-16T13:00:53.082Z,18.10
2018-05-16T13:02:56.586Z,16.03
2018-05-16T13:05:00.059Z,14.33
2018-05-16T13:07:03.722Z,21.07
2018-05-16T13:09:07.224Z,19.23
2018-05-16T13:11:10.704Z,18.60
2018-05-16T13:13:14.240Z,22.43
2018-05-16T13:15:17.702Z,18.30
2018-05-16T13:17:21.239Z,13.83
2018-05-16T13:19:24.846Z,20.13
2018-05-16T13:21:28.310Z,17.47
2018-05-16T13:23:31.795Z,12.73
2018-05-16T13:25:35.397Z,13.73
2018-05-16T13:27:38.931Z,17.30
2018-05-16T13:29:42.398Z,4.63
2018-05-16T13:31:45.952Z,16.53
2018-05-16T13:33:50.223Z,14.57
2018-05-16T13:35:53.683Z,21.00
2018-05-16T13:37:57.671Z,15.47
2018-05-16T13:40:01.224Z,15.07
2018-05-16T13:42:05.525Z,6.27
2018-05-16T13:44:09.040Z,13.53
2018-05-16T13:46:12.500Z,12.47
2018-05-16T13:48:15.973Z,21.53
2018-05-16T13:50:19.510Z,19.97
2018-05-16T13:52:23.033Z,10.33
2018-05-16T13:54:27.374Z,18.20
2018-05-16T13:56:30.941Z,10.13
2018-05-16T13:58:35.237Z,7.50
2018-05-16T14:00:38.765Z,14.07
2018-05-16T14:02:43.057Z,9.90
2018-05-16T14:04:46.537Z,11.83
2018-05-16T14:06:50.072Z,12.20
2018-05-16T14:08:53.607Z,12.10
2018-05-16T14:10:57.123Z,15.07
2018-05-16T14:13:00.603Z,9.23
2018-05-16T14:15:04.178Z,13.10
2018-05-16T14:17:07.666Z,15.87
2018-05-16T14:19:11.120Z,12.17
2018-05-16T14:21:14.739Z,12.87
2018-05-16T14:23:18.362Z,13.40
2018-05-16T14:25:21.803Z,7.40
2018-05-16T14:27:25.824Z,10.93
2018-05-16T14:29:30.050Z,7.80
2018-05-16T14:31:33.543Z,11.53
2018-05-16T14:33:37.070Z,15.23
2018-05-16T14:35:41.986Z,10.40
2018-05-16T14:37:45.467Z,16.07
2018-05-16T14:39:51.359Z,10.23
2018-05-16T14:41:55.313Z,7.17
2018-05-16T14:43:58.790Z,7.57
2018-05-16T14:46:02.291Z,15.37
2018-05-16T14:48:06.570Z,12.80
2018-05-16T14:50:10.068Z,10.23
2018-05-16T14:52:13.567Z,9.90
2018-05-16T14:54:17.041Z,11.27
2018-05-16T14:56:20.557Z,8.07
2018-05-16T14:58:24.070Z,16.37
2018-05-16T15:00:28.322Z,9.73
2018-05-16T15:02:31.806Z,12.77
2018-05-16T15:04:35.457Z,8.00
2018-05-16T15:06:38.914Z,16.83
2018-05-16T15:08:42.429Z,7.20
2018-05-16T15:10:45.950Z,12.37
2018-05-16T15:12:49.470Z,17.57
2018-05-16T15:14:53.063Z,12.30
2018-05-16T15:16:57.050Z,11.40
2018-05-16T15:19:00.543Z,8.10
2018-05-16T15:21:04.806Z,13.27
2018-05-16T15:23:08.354Z,11.80
2018-05-16T15:25:11.847Z,15.10
2018-05-16T15:27:15.363Z,12.77
2018-05-16T15:29:19.638Z,12.80
2018-05-16T15:31:23.102Z,12.10
2018-05-16T15:33:26.638Z,16.67
2018-05-16T15:35:30.135Z,14.40
2018-05-16T15:37:33.636Z,14.37
2018-05-16T15:39:37.933Z,22.97
2018-05-16T15:41:41.560Z,21.23
2018-05-16T15:43:45.799Z,16.43
2018-05-16T15:45:49.301Z,16.67
2018-05-16T15:47:52.780Z,17.57
2018-05-16T15:49:56.264Z,16.00
2018-05-16T15:51:59.805Z,16.10
2018-05-16T15:54:03.374Z,14.90
2018-05-16T15:56:06.877Z,22.73
2018-05-16T15:58:10.334Z,12.53
2018-05-16T16:00:15.018Z,12.20
2018-05-16T16:02:18.543Z,13.53
2018-05-16T16:04:22.830Z,11.60
2018-05-16T16:06:26.329Z,18.30
2018-05-16T16:08:29.837Z,10.07
2018-05-16T16:10:33.349Z,14.23
2018-05-16T16:12:37.667Z,14.63
2018-05-16T16:14:41.959Z,14.50
2018-05-16T16:16:46.189Z,18.67
2018-05-16T16:18:50.446Z,18.60
2018-05-16T16:20:53.942Z,15.50
2018-05-16T16:22:58.219Z,17.03
2018-05-16T16:25:01.750Z,12.40
2018-05-16T16:27:05.266Z,14.13
2018-05-16T16:29:08.761Z,14.47
2018-05-16T16:31:12.376Z,17.17
2018-05-16T16:33:15.826Z,17.50
2018-05-16T16:35:20.078Z,17.77
2018-05-16T16:37:24.355Z,19.33
2018-05-16T16:39:27.891Z,9.03
2018-05-16T16:41:32.113Z,12.87
2018-05-16T16:43:36.397Z,15.07
2018-05-16T16:45:39.877Z,16.10
2018-05-16T16:47:44.177Z,15.50
2018-05-16T16:49:47.720Z,18.67
2018-05-16T16:51:52.018Z,19.50
2018-05-16T16:53:56.318Z,16.77
2018-05-16T16:55:59.845Z,17.23
2018-05-16T16:58:04.090Z,21.87
2018-05-16T17:00:07.622Z,12.53
2018-05-16T17:02:11.921Z,17.37
2018-05-16T17:04:15.455Z,18.57
2018-05-16T17:06:19.756Z,15.50
2018-05-16T17:08:23.250Z,15.73
2018-05-16T17:10:26.753Z,17.57
2018-05-16T17:12:31.167Z,15.53
2018-05-16T17:14:34.668Z,16.13
2018-05-16T17:16:38.988Z,20.70
2018-05-16T17:18:42.478Z,16.97
2018-05-16T17:20:47.094Z,15.37
2018-05-16T17:22:51.524Z,20.53
2018-05-16T17:24:55.063Z,16.10
2018-05-16T17:26:58.668Z,19.73
2018-05-16T17:29:02.863Z,11.70
2018-05-16T17:31:06.411Z,11.83
2018-05-16T17:33:10.671Z,15.67
2018-05-16T17:35:14.171Z,18.20
2018-05-16T17:37:17.795Z,20.70
2018-05-16T17:39:21.243Z,14.40
2018-05-16T17:41:24.723Z,20.47
2018-05-16T17:43:28.400Z,17.40
2018-05-16T17:45:32.681Z,21.90
2018-05-16T17:47:36.175Z,16.90
2018-05-16T17:49:39.679Z,24.37
2018-05-16T17:51:43.277Z,17.77
2018-05-16T17:53:46.755Z,18.30
2018-05-16T17:55:51.787Z,16.87
2018-05-16T17:57:55.292Z,22.93
2018-05-16T17:59:58.811Z,16.30
2018-05-16T18:02:03.182Z,16.00
2018-05-16T18:04:06.659Z,19.47
2018-05-16T18:06:10.163Z,20.07
2018-05-16T18:08:13.673Z,16.23
2018-05-16T18:10:17.215Z,18.00
2018-05-16T18:12:21.488Z,24.77
2018-05-16T18:14:51.712Z,15.43
2018-05-16T18:17:22.728Z,17.43
2018-05-16T18:19:26.292Z,19.17
2018-05-16T18:21:29.776Z,22.10
2018-05-16T18:23:34.055Z,19.33
2018-05-16T18:25:37.591Z,24.40
2018-05-16T18:27:41.861Z,15.37
2018-05-16T18:29:45.375Z,17.47
2018-05-16T18:31:48.899Z,14.27
2018-05-16T18:33:52.375Z,24.87
2018-05-16T18:35:56.719Z,20.43
2018-05-16T18:38:00.225Z,19.83
2018-05-16T18:40:04.306Z,18.80
2018-05-16T18:42:08.886Z,21.87
2018-05-16T18:44:12.404Z,21.70
2018-05-16T18:46:16.630Z,19.43
2018-05-16T18:48:20.954Z,19.93
2018-05-16T18:50:24.427Z,22.10
2018-05-16T18:52:28.650Z,20.13
2018-05-16T18:54:32.156Z,26.40
2018-05-16T18:56:35.682Z,19.80
2018-05-16T18:58:39.208Z,21.13
2018-05-16T19:00:43.054Z,25.07
2018-05-16T19:02:46.604Z,18.17
2018-05-16T19:04:50.087Z,24.60
2018-05-16T19:06:53.624Z,15.97
2018-05-16T19:08:57.873Z,19.40
2018-05-16T19:11:01.370Z,15.67
2018-05-16T19:13:04.932Z,21.73
2018-05-16T19:15:09.143Z,18.63
2018-05-16T19:17:12.690Z,19.90
2018-05-16T19:19:16.163Z,13.63
2018-05-16T19:21:19.685Z,19.77
2018-05-16T19:23:23.594Z,21.77
2018-05-16T19:25:27.101Z,19.60
2018-05-16T19:27:33.100Z,23.63
2018-05-16T19:29:37.443Z,18.70
2018-05-16T19:31:40.942Z,17.80
2018-05-16T19:33:44.406Z,16.30
2018-05-16T19:35:47.907Z,18.90
2018-05-16T19:37:51.459Z,12.63
2018-05-16T19:39:55.841Z,21.37
2018-05-16T19:41:59.322Z,15.00
2018-05-16T19:44:02.809Z,17.00
2018-05-16T19:46:06.377Z,15.03
2018-05-16T19:48:10.672Z,19.37
2018-05-16T19:50:14.934Z,13.20
2018-05-16T19:52:19.232Z,22.30
2018-05-16T19:54:23.271Z,17.87
2018-05-16T19:56:26.753Z,22.80
2018-05-16T19:58:32.960Z,24.30
2018-05-16T20:00:36.814Z,21.13
2018-05-16T20:02:42.420Z,24.13
2018-05-16T20:04:45.971Z,12.70
2018-05-16T20:06:53.106Z,19.93
2018-05-16T20:08:56.641Z,17.43
2018-05-16T20:11:01.923Z,18.83
2018-05-16T20:13:05.593Z,22.53
2018-05-16T20:15:09.135Z,21.73
2018-05-16T20:17:12.633Z,13.43
2018-05-16T20:19:16.136Z,21.40
2018-05-16T20:21:23.897Z,17.03
2018-05-16T20:23:28.035Z,18.77
2018-05-16T20:25:33.442Z,22.43
2018-05-16T20:27:38.307Z,17.73
2018-05-16T20:29:41.837Z,19.80
2018-05-16T20:31:45.355Z,22.63
2018-05-16T20:33:49.651Z,22.17
2018-05-16T20:35:55.038Z,19.17
2018-05-16T20:37:58.552Z,17.07
2018-05-16T20:40:02.435Z,22.70
2018-05-16T20:42:06.754Z,26.40
2018-05-16T20:44:11.176Z,18.00
2018-05-16T20:46:15.600Z,20.33
2018-05-16T20:48:19.099Z,21.57
2018-05-16T20:50:22.603Z,16.50
2018-05-16T20:52:26.541Z,25.83
2018-05-16T20:54:30.794Z,22.43
2018-05-16T20:56:34.269Z,18.03
2018-05-16T20:58:37.815Z,17.13
2018-05-16T21:00:41.294Z,24.97
2018-05-16T21:02:44.832Z,19.37
2018-05-16T21:04:49.205Z,22.47
2018-05-16T21:06:53.134Z,21.03
2018-05-16T21:08:56.617Z,23.80
2018-05-16T21:11:00.134Z,21.67
2018-05-16T21:13:04.402Z,23.57
2018-05-16T21:15:08.350Z,29.97
2018-05-16T21:17:12.614Z,22.60
2018-05-16T21:19:16.107Z,23.03
2018-05-16T21:21:19.630Z,22.83
2018-05-16T21:23:23.122Z,20.83
2018-05-16T21:25:26.667Z,19.30
2018-05-16T21:27:30.141Z,24.87
2018-05-16T21:29:33.647Z,25.90
2018-05-16T21:31:37.158Z,20.37
2018-05-16T21:33:40.700Z,22.07
2018-05-16T21:35:44.200Z,18.00
2018-05-16T21:37:47.699Z,22.00
2018-05-16T21:39:51.213Z,20.40
2018-05-16T21:41:55.534Z,18.43
2018-05-16T21:43:59.841Z,17.33
2018-05-16T21:46:04.101Z,25.57
2018-05-16T21:48:07.591Z,24.90
2018-05-16T21:50:11.136Z,23.03
2018-05-16T21:52:14.618Z,21.20
2018-05-16T21:54:18.100Z,22.10
2018-05-16T21:56:21.642Z,21.60
2018-05-16T21:58:25.187Z,24.20
2018-05-16T22:00:28.723Z,24.30
2018-05-16T22:02:32.243Z,20.60
2018-05-16T22:04:35.770Z,19.87
2018-05-16T22:06:39.414Z,21.50
2018-05-16T22:08:43.710Z,21.37
2018-05-16T22:10:47.955Z,15.17
2018-05-16T22:12:51.566Z,24.43
2018-05-16T22:14:55.067Z,17.23
2018-05-16T22:16:58.619Z,23.43
2018-05-16T22:19:02.858Z,22.00
2018-05-16T22:21:06.377Z,27.27
2018-05-16T22:23:09.896Z,24.97
2018-05-16T22:25:13.379Z,20.70
2018-05-16T22:27:16.891Z,25.23
2018-05-16T22:29:21.135Z,18.07
2018-05-16T22:31:30.165Z,22.87
2018-05-16T22:33:39.266Z,19.93
2018-05-16T22:35:49.158Z,22.97
2018-05-16T22:37:58.437Z,21.20
2018-05-16T22:40:08.401Z,15.40
2018-05-16T22:42:17.474Z,25.07
2018-05-16T22:44:38.794Z,23.80
2018-05-16T22:46:43.079Z,31.67
2018-05-16T22:48:46.575Z,25.13
2018-05-16T22:50:50.083Z,23.33
2018-05-16T22:52:53.599Z,26.27
2018-05-16T22:54:57.090Z,21.93
2018-05-16T22:57:01.067Z,25.30
2018-05-16T22:59:04.570Z,21.83
2018-05-16T23:01:08.081Z,24.73
2018-05-16T23:03:11.603Z,23.83
2018-05-16T23:05:15.841Z,23.60
2018-05-16T23:07:19.710Z,24.13
2018-05-16T23:09:23.956Z,21.33
2018-05-16T23:11:27.414Z,23.33
2018-05-16T23:13:30.952Z,22.00
2018-05-16T23:15:34.547Z,19.97
2018-05-16T23:17:38.054Z,26.60
2018-05-16T23:19:41.571Z,20.83
2018-05-16T23:21:45.119Z,20.87
2018-05-16T23:23:48.683Z,32.83
2018-05-16T23:25:52.179Z,23.90
2018-05-16T23:27:55.674Z,31.30
2018-05-16T23:29:59.159Z,25.90
2018-05-16T23:32:02.623Z,21.47
2018-05-16T23:34:06.140Z,23.63
2018-05-16T23:36:09.691Z,22.03
2018-05-16T23:38:13.173Z,24.83
2018-05-16T23:40:16.648Z,28.33
2018-05-16T23:42:20.925Z,17.17
2018-05-16T23:44:24.454Z,24.53
2018-05-16T23:46:27.940Z,25.53
2018-05-16T23:48:31.423Z,22.00
2018-05-16T23:50:34.874Z,26.63
2018-05-16T23:52:38.398Z,25.37
2018-05-16T23:54:41.947Z,16.17
2018-05-16T23:56:46.178Z,24.17
2018-05-16T23:58:49.695Z,23.00
